Skip Navigation Links Skip Navigation Links

Current Weather

Chicago Executive, Wheeling, Ill.

For information only: do not use for flight planning or navigation.
Latest weather
Observation time Saturday, August 24, 2019 11:52 PM CDT
Local time Sunday, August 25, 2019 12:11 AM CDT
Flight conditions Visual Meteorological Conditions
Winds
Wind direction Southeast (130°)
Wind speed 3 mph
Visibility 10 mi.
Sky condition
Ceiling 4,800 ft. broken clouds
Cloud layer broken clouds 4,800 ft.
Temperature 65°F
Dewpoint 58°F
Altimeter 30.21 in.Hg
Derived measurements
Relative humidity 78%
Density altitude 933 ft.
Sea-level pressure 30.20 in.Hg
Remarks
Fully automated report.
Automated weather observing station with precipitation discriminator.
METAR KPWK 250452Z AUTO 13003KT 10SM BKN048 18/14 A3021 RMK AO2 SLP227 T01830144

Settings

Location code

InnerDrive.Weather 4.0.6770.0 Release CLR 4.0.30319.42000
Copyright ©2018 Inner Drive Technology. All rights reserved. Portions Copyright ©1986-2018 David Braverman.

Find weather

Site navigation


Skip Navigation Links

Place info

Page info

PayPal - The safer, easier way to pay online!

Return home.

Copyright ©2019 Inner Drive Technology. Purveyors of fine, hand-crafted computer software. Page printed 2019-08-25T05:11:19 UTC.